D/T METAR WX W/DIR W/SPE G/SPE TEMP DEWP
23/03/19 12:00 EIDL 231200Z 28013KT 9999 FEW038 08/03 Q1033 W (280°) 15.0mph 8°C 3°C
23/03/19 11:30 EIDL 231130Z 28011KT 9999 FEW035 SCT040 09/03 Q1033 W (280°) 12.7mph 9°C 3°C
23/03/19 11:00 EIDL 231100Z 27011KT CAVOK 09/03 Q1033 W (270°) 12.7mph 9°C 3°C
23/03/19 10:30 EIDL 231030Z 27011KT 9999 BKN036 08/03 Q1032 W (270°) 12.7mph 8°C 3°C
23/03/19 10:00 EIDL 231000Z 27011KT 9999 FEW037 08/03 Q1032 W (270°) 12.7mph 8°C 3°C
23/03/19 09:30 EIDL 230930Z 30013KT CAVOK 08/02 Q1032 WNW (300°) 15.0mph 8°C 2°C
23/03/19 09:00 EIDL 230900Z 29013KT 9999 FEW029 08/02 Q1032 WNW (290°) 15.0mph 8°C 2°C
23/03/19 08:30 EIDL 230830Z 28014KT 9999 FEW032 07/02 Q1031 W (280°) 16.1mph 7°C 2°C
23/03/19 08:00 EIDL 230800Z 29013KT 9999 FEW032 SCT039 07/02 Q1031 WNW (290°) 15.0mph 7°C 2°C
23/03/19 07:30 EIDL 230730Z 29013KT 9999 BKN033 07/02 Q1031 WNW (290°) 15.0mph 7°C 2°C
22/03/19 20:00 EIDL 222000Z 26021KT 9999 FEW042 07/02 Q1024 W (260°) 24.2mph 7°C 2°C
22/03/19 19:30 EIDL 221930Z 28022KT 9999 BKN043 OVC049 08/02 Q1024 W (280°) 25.3mph 8°C 2°C
22/03/19 19:00 EIDL 221900Z 28022KT 9999 OVC039 08/02 Q1023 W (280°) 25.3mph 8°C 2°C
22/03/19 17:30 EIDL 221730Z 26018KT 9999 BKN032 OVC045 09/03 Q1022 W (260°) 20.7mph 9°C 3°C
22/03/19 17:00 EIDL 221700Z 27023KT 9999 BKN033 BKN041 09/03 Q1021 W (270°) 26.5mph 9°C 3°C
22/03/19 16:30 EIDL 221630Z 26022KT 9999 -RA BKN037 09/04 Q1021 -RA W (260°) 25.3mph 9°C 4°C
22/03/19 15:30 EIDL 221530Z 25021KT 9999 FEW043 10/02 Q1020 WSW (250°) 24.2mph 10°C 2°C
22/03/19 15:00 EIDL 221500Z 26023KT 9999 SCT038 BKN045 10/04 Q1020 W (260°) 26.5mph 10°C 4°C
22/03/19 14:00 EIDL 221400Z 25020KT 9999 BKN037 BKN047 10/04 Q1019 WSW (250°) 23.0mph 10°C 4°C
22/03/19 13:30 EIDL 221330Z 25021KT 9999 -RA BKN032 10/04 Q1019 -RA WSW (250°) 24.2mph 10°C 4°C
22/03/19 12:30 EIDL 221230Z 26017KT 9999 FEW024 BKN028 10/05 Q1018 W (260°) 19.6mph 10°C 5°C
22/03/19 12:00 EIDL 221200Z 25018KT 9999 SCT025 BKN031 10/05 Q1018 WSW (250°) 20.7mph 10°C 5°C
22/03/19 11:30 EIDL 221130Z 25018KT 9999 SCT030 10/05 Q1018 WSW (250°) 20.7mph 10°C 5°C
22/03/19 11:00 EIDL 221100Z 25014KT 9999 SCT022 10/06 Q1017 WSW (250°) 16.1mph 10°C 6°C
22/03/19 10:30 EIDL 221030Z 25014KT 9999 SCT022 10/06 Q1017 WSW (250°) 16.1mph 10°C 6°C
22/03/19 10:00 EIDL 221000Z 23017KT 9999 -RA SCT022 SCT029 09/07 Q1016 -RA SW (230°) 19.6mph 9°C 7°C
22/03/19 09:30 EIDL 220930Z 23015KT 9999 FEW035 09/07 Q1016 SW (230°) 17.3mph 9°C 7°C
22/03/19 09:00 EIDL 220900Z 23016KT 9999 -RA FEW022 OVC043 09/07 Q1015 -RA SW (230°) 18.4mph 9°C 7°C
22/03/19 08:30 EIDL 220830Z 24022KT 9000 -RA SCT012 BKN019 OVC037 09/08 Q1015 RERA -RA WSW (240°) 25.3mph 9°C 8°C
22/03/19 08:00 EIDL 220800Z 19018KT 9000 RA FEW015 BKN020 OVC025 10/09 Q1014 RA S (190°) 20.7mph 10°C 9°C
21/03/19 20:00 EIDL 212000Z 20017KT CAVOK 11/07 Q1023 SSW (200°) 19.6mph 11°C 7°C
21/03/19 19:30 EIDL 211930Z 20020KT CAVOK 11/07 Q1023 SSW (200°) 23.0mph 11°C 7°C
21/03/19 19:00 EIDL 211900Z 20017KT CAVOK 11/07 Q1023 SSW (200°) 19.6mph 11°C 7°C
21/03/19 18:30 EIDL 211830Z 20014KT 9999 SCT023 BKN026 11/08 Q1024 SSW (200°) 16.1mph 11°C 8°C
21/03/19 18:00 EIDL 211800Z 20016KT 9999 OVC022 12/09 Q1025 SSW (200°) 18.4mph 12°C 9°C
21/03/19 17:30 EIDL 211730Z 19012KT 9999 OVC019 12/09 Q1024 S (190°) 13.8mph 12°C 9°C
21/03/19 17:00 EIDL 211700Z 20011KT 9999 SCT017 OVC020 12/09 Q1025 SSW (200°) 12.7mph 12°C 9°C
21/03/19 16:30 EIDL 211630Z 21009KT 9999 FEW005 OVC019 11/10 Q1026 SSW (210°) 10.4mph 11°C 10°C
21/03/19 16:00 EIDL 211600Z 23010KT 9999 SCT005 OVC021 11/10 Q1026 SW (230°) 11.5mph 11°C 10°C
21/03/19 15:30 EIDL 211530Z 22011KT 9999 -RA FEW006 SCT008 OVC021 11/10 Q1026 -RA SW (220°) 12.7mph 11°C 10°C
21/03/19 15:00 EIDL 211500Z 22011KT 9999 -RA OVC009 11/10 Q1027 -RA SW (220°) 12.7mph 11°C 10°C
21/03/19 14:30 EIDL 211430Z 22013KT 9999 -RA FEW008 BKN012 OVC016 11/10 Q1027 -RA SW (220°) 15.0mph 11°C 10°C
21/03/19 14:00 EIDL 211400Z 22014KT 9999 SCT008 OVC020 12/10 Q1027 SW (220°) 16.1mph 12°C 10°C
21/03/19 13:30 EIDL 211330Z 22014KT 4200 -RA BR BKN005 OVC013 11/11 Q1028 -RA BR SW (220°) 16.1mph 11°C 11°C
21/03/19 13:00 EIDL 211300Z 22012KT 8000 BKN005 BKN011 OVC014 12/11 Q1028 SW (220°) 13.8mph 12°C 11°C
21/03/19 12:30 EIDL 211230Z 22011KT 3200 -DZ BKN004 OVC012 11/11 Q1028 -DZ SW (220°) 12.7mph 11°C 11°C
21/03/19 12:00 EIDL 211200Z 21011KT 2100 -DZ BR SCT004 OVC006 11/10 Q1028 -DZ BR SSW (210°) 12.7mph 11°C 10°C
21/03/19 11:30 EIDL 211130Z 22014KT 3300 -DZ BKN005 OVC015 11/10 Q1028 -DZ SW (220°) 16.1mph 11°C 10°C
21/03/19 11:00 EIDL 211100Z 25007KT 2300 -DZ BR OVC004 10/10 Q1029 -DZ BR WSW (250°) 8.1mph 10°C 10°C
21/03/19 10:30 EIDL 211030Z 21013KT 9999 SCT006 BKN040 OVC048 11/10 Q1028 SSW (210°) 15.0mph 11°C 10°C
21/03/19 10:00 EIDL 211000Z 20008KT 9999 FEW006 OVC042 11/10 Q1028 SSW (200°) 9.2mph 11°C 10°C
21/03/19 09:30 EIDL 210930Z 19010KT 9999 FEW005 BKN043 10/10 Q1028 S (190°) 11.5mph 10°C 10°C
21/03/19 09:00 EIDL 210900Z 19008KT 9999 FEW017 BKN045 10/10 Q1028 S (190°) 9.2mph 10°C 10°C
21/03/19 08:30 EIDL 210830Z 21008KT 9999 FEW015 BKN040 10/09 Q1028 SSW (210°) 9.2mph 10°C 9°C
21/03/19 08:00 EIDL 210800Z 22007KT 5000 BKN013 OVC019 10/09 Q1028 SW (220°) 8.1mph 10°C 9°C
20/03/19 19:30 EIDL 201930Z 22021KT 9999 FEW022 12/09 Q1024 SW (220°) 24.2mph 12°C 9°C
20/03/19 19:00 EIDL 201900Z 22022KT 9999 SCT044 12/09 Q1024 SW (220°) 25.3mph 12°C 9°C
20/03/19 18:30 EIDL 201830Z 22021KT 9999 BKN045 12/09 Q1024 SW (220°) 24.2mph 12°C 9°C
20/03/19 18:00 EIDL 201800Z 22020KT 9999 FEW048 12/09 Q1024 SW (220°) 23.0mph 12°C 9°C
20/03/19 17:30 EIDL 201730Z 22021KT 9999 BKN045 13/09 Q1024 SW (220°) 24.2mph 13°C 9°C
20/03/19 17:00 EIDL 201700Z 22020KT 9999 OVC042 13/09 Q1024 SW (220°) 23.0mph 13°C 9°C
20/03/19 16:30 EIDL 201630Z 21019KT 9999 SCT026 OVC035 12/10 Q1024 SSW (210°) 21.9mph 12°C 10°C
20/03/19 16:00 EIDL 201600Z 22021KT 9999 FEW007 OVC024 12/10 Q1024 SW (220°) 24.2mph 12°C 10°C
20/03/19 15:30 EIDL 201530Z 23021G31KT 9999 -RA BKN006 OVC012 12/11 Q1024 -RA SW (230°) 24.2mph 35.7mph 12°C 11°C
20/03/19 15:00 EIDL 201500Z 22015KT 9999 -RA OVC011 13/11 Q1024 REDZ -RA SW (220°) 17.3mph 13°C 11°C
20/03/19 14:30 EIDL 201430Z 21017KT 9999 OVC015 13/10 Q1024 SSW (210°) 19.6mph 13°C 10°C
20/03/19 14:00 EIDL 201400Z 21020KT 9999 BKN016 14/11 Q1024 SSW (210°) 23.0mph 14°C 11°C
20/03/19 13:30 EIDL 201330Z 21017KT 9999 FEW013 BKN035 14/11 Q1025 SSW (210°) 19.6mph 14°C 11°C
20/03/19 13:00 EIDL 201300Z 22019KT 9999 OVC013 12/10 Q1025 SW (220°) 21.9mph 12°C 10°C
20/03/19 12:30 EIDL 201230Z 21016KT 9999 BKN012 OVC015 13/10 Q1025 SSW (210°) 18.4mph 13°C 10°C
20/03/19 12:00 EIDL 201200Z 21018KT 9999 OVC013 12/10 Q1025 SSW (210°) 20.7mph 12°C 10°C
20/03/19 11:30 EIDL 201130Z 20018KT 9999 OVC013 12/10 Q1025 SSW (200°) 20.7mph 12°C 10°C
20/03/19 10:30 EIDL 201030Z 20016KT 9999 SCT013 OVC022 12/10 Q1025 SSW (200°) 18.4mph 12°C 10°C
20/03/19 10:00 EIDL 201000Z 19014KT 9999 FEW008 BKN010 OVC022 11/10 Q1025 S (190°) 16.1mph 11°C 10°C
20/03/19 09:30 EIDL 200930Z 20013KT 7000 -RA OVC009 11/10 Q1025 -RA SSW (200°) 15.0mph 11°C 10°C
20/03/19 08:30 EIDL 200830Z 19011KT 3400 BR SCT007 OVC013 10/09 Q1025 BR S (190°) 12.7mph 10°C 9°C
20/03/19 08:00 EIDL 200800Z 18011KT 4100 BR BKN008 OVC014 10/09 Q1025 BR S (180°) 12.7mph 10°C 9°C
19/03/19 20:00 EIDL 192000Z 22011KT 9999 BKN004 OVC010 09/09 Q1024 SW (220°) 12.7mph 9°C 9°C
19/03/19 19:30 EIDL 191930Z 23011KT 8000 -RA BKN003 OVC010 09/09 Q1024 -RA SW (230°) 12.7mph 9°C 9°C
19/03/19 19:00 EIDL 191900Z 23010KT 8000 OVC002 09/09 Q1024 SW (230°) 11.5mph 9°C 9°C
19/03/19 18:30 EIDL 191830Z 23012KT 2200 -RA BR BKN002 OVC006 09/09 Q1024 -RA BR SW (230°) 13.8mph 9°C 9°C
19/03/19 17:30 EIDL 191730Z 24013KT 2400 -DZ BR OVC003 10/09 Q1024 -DZ BR WSW (240°) 15.0mph 10°C 9°C
19/03/19 17:00 EIDL 191700Z 24014KT 2600 BR OVC004 10/09 Q1023 BR WSW (240°) 16.1mph 10°C 9°C
19/03/19 16:30 EIDL 191630Z 24013KT 5000 BR OVC004 10/09 Q1023 BR WSW (240°) 15.0mph 10°C 9°C
19/03/19 16:00 EIDL 191600Z 24013KT 6000 OVC004 10/09 Q1023 WSW (240°) 15.0mph 10°C 9°C
19/03/19 15:30 EIDL 191530Z 23012KT 5000 -DZ BKN004 OVC014 10/10 Q1022 -DZ SW (230°) 13.8mph 10°C 10°C
19/03/19 15:00 EIDL 191500Z 23014KT 4600 BR OVC004 10/09 Q1022 BR SW (230°) 16.1mph 10°C 9°C
19/03/19 14:30 EIDL 191430Z 23013KT 9999 OVC006 10/09 Q1022 SW (230°) 15.0mph 10°C 9°C
19/03/19 14:00 EIDL 191400Z 24014KT 9999 OVC006 10/09 Q1022 WSW (240°) 16.1mph 10°C 9°C
19/03/19 13:30 EIDL 191330Z 23014KT 6000 -RA BKN005 OVC011 10/09 Q1022 -RA SW (230°) 16.1mph 10°C 9°C
19/03/19 13:00 EIDL 191300Z 22013KT 3500 -RA BR OVC005 10/09 Q1022 -RA BR SW (220°) 15.0mph 10°C 9°C
19/03/19 12:30 EIDL 191230Z 24013KT 3400 -RA OVC005 10/09 Q1022 -RA WSW (240°) 15.0mph 10°C 9°C
19/03/19 10:30 EIDL 191030Z 22017KT 8000 -RA BKN004 OVC009 10/10 Q1020 -RA SW (220°) 19.6mph 10°C 10°C
19/03/19 10:00 EIDL 191000Z 22017KT 6000 -RA BKN005 OVC011 10/10 Q1020 -RA SW (220°) 19.6mph 10°C 10°C
19/03/19 09:30 EIDL 190930Z 20013KT 3800 -RA BR OVC006 10/09 Q1020 REDZ -RA BR SSW (200°) 15.0mph 10°C 9°C
19/03/19 09:00 EIDL 190900Z 20011KT 4800 -RA SCT007 OVC012 09/09 Q1020 -RA SSW (200°) 12.7mph 9°C 9°C
19/03/19 08:30 EIDL 190830Z 19013KT 3500 -RA BR SCT009 OVC016 09/08 Q1020 -RA BR S (190°) 15.0mph 9°C 8°C
19/03/19 08:00 EIDL 190800Z 18014KT 4100 -RA BKN010 OVC016 08/08 Q1019 REDZ -RA S (180°) 16.1mph 8°C 8°C
19/03/19 07:30 EIDL 190730Z 19014KT 3400 -RA BKN010 OVC015 08/07 Q1019 -RA S (190°) 16.1mph 8°C 7°C
18/03/19 19:30 EIDL 181930Z 26008KT 7000 -RA FEW021 SCT032 OVC045 09/08 Q1021 -RA W (260°) 9.2mph 9°C 8°C
18/03/19 19:00 EIDL 181900Z 27008KT 6000 -RA SCT026 OVC041 09/08 Q1021 -RA W (270°) 9.2mph 9°C 8°C
18/03/19 18:30 EIDL 181830Z 27008KT 6000 -RA FEW034 SCT046 09/08 Q1020 -RA W (270°) 9.2mph 9°C 8°C
18/03/19 18:00 EIDL 181800Z 27009KT 7000 FEW017 BKN034 OVC040 09/08 Q1020 W (270°) 10.4mph 9°C 8°C
18/03/19 17:30 EIDL 181730Z 28010KT 9000 FEW020 OVC033 09/08 Q1020 W (280°) 11.5mph 9°C 8°C
18/03/19 17:00 EIDL 181700Z 28009KT 9000 FEW011 09/08 Q1019 W (280°) 10.4mph 9°C 8°C
18/03/19 16:30 EIDL 181630Z 27008KT 8000 FEW011 BKN015 09/08 Q1019 W (270°) 9.2mph 9°C 8°C
18/03/19 16:00 EIDL 181600Z 27008KT 8000 SCT012 SCT047 09/08 Q1019 W (270°) 9.2mph 9°C 8°C
18/03/19 15:30 EIDL 181530Z 27010KT 9999 FEW016 10/08 Q1019 W (270°) 11.5mph 10°C 8°C
18/03/19 15:00 EIDL 181500Z 27011KT 9999 FEW018 SCT040 OVC047 10/08 Q1019 W (270°) 12.7mph 10°C 8°C
18/03/19 14:30 EIDL 181430Z 28010KT 9999 FEW012 BKN037 OVC046 10/08 Q1018 W (280°) 11.5mph 10°C 8°C
18/03/19 14:00 EIDL 181400Z 27010KT 9999 BKN042 10/08 Q1018 W (270°) 11.5mph 10°C 8°C
18/03/19 13:30 EIDL 181330Z 28011KT 9999 OVC047 09/08 Q1018 W (280°) 12.7mph 9°C 8°C
18/03/19 13:00 EIDL 181300Z 27011KT 9999 FEW036 BKN048 09/08 Q1018 W (270°) 12.7mph 9°C 8°C
18/03/19 12:30 EIDL 181230Z 27011KT 9999 FEW039 OVC044 10/08 Q1017 W (270°) 12.7mph 10°C 8°C
18/03/19 12:00 EIDL 181200Z 28011KT 9999 FEW032 BKN048 09/08 Q1017 W (280°) 12.7mph 9°C 8°C
18/03/19 11:30 EIDL 181130Z 28011KT 9999 FEW032 OVC047 09/08 Q1017 W (280°) 12.7mph 9°C 8°C
18/03/19 11:00 EIDL 181100Z 27012KT 9999 OVC045 09/07 Q1017 W (270°) 13.8mph 9°C 7°C
18/03/19 10:30 EIDL 181030Z 27012KT 9999 FEW037 09/08 Q1016 W (270°) 13.8mph 9°C 8°C
18/03/19 10:00 EIDL 181000Z 28012KT CAVOK 09/07 Q1016 W (280°) 13.8mph 9°C 7°C
18/03/19 09:30 EIDL 180930Z 28016KT 8000 -RA OVC011 08/07 Q1015 -RA W (280°) 18.4mph 8°C 7°C
18/03/19 09:00 EIDL 180900Z 26015KT 9999 SCT014 BKN024 OVC031 09/07 Q1015 W (260°) 17.3mph 9°C 7°C
18/03/19 08:30 EIDL 180830Z 26016KT 9999 SCT023 OVC029 09/07 Q1015 W (260°) 18.4mph 9°C 7°C
18/03/19 08:00 EIDL 180800Z 26014KT 9999 FEW019 BKN031 09/07 Q1015 W (260°) 16.1mph 9°C 7°C
18/03/19 07:30 EIDL 180730Z 26014KT 9999 FEW019 BKN030 08/07 Q1015 W (260°) 16.1mph 8°C 7°C
17/03/19 20:00 EIDL 172000Z 34017KT 9999 SCT026 BKN033 07/03 Q1015 NNW (340°) 19.6mph 7°C 3°C
17/03/19 19:30 EIDL 171930Z 31013KT 9999 -RA BKN030 07/02 Q1014 -RA NW (310°) 15.0mph 7°C 2°C
17/03/19 19:00 EIDL 171900Z 32021G32KT 9999 -RA BKN027 07/02 Q1014 -RA NW (320°) 24.2mph 36.8mph 7°C 2°C
17/03/19 18:30 EIDL 171830Z 32013KT CAVOK 08/03 Q1014 NW (320°) 15.0mph 8°C 3°C
17/03/19 18:00 EIDL 171800Z 34013KT CAVOK 08/03 Q1013 NNW (340°) 15.0mph 8°C 3°C
17/03/19 17:30 EIDL 171730Z 33016KT 9999 SCT035 09/03 Q1013 NNW (330°) 18.4mph 9°C 3°C
17/03/19 17:00 EIDL 171700Z 32016KT 9999 SCT035 09/04 Q1013 NW (320°) 18.4mph 9°C 4°C
17/03/19 16:30 EIDL 171630Z 32016KT 9999 BKN034 09/04 Q1012 NW (320°) 18.4mph 9°C 4°C
17/03/19 16:00 EIDL 171600Z 32015KT 9999 BKN034 09/04 Q1012 NW (320°) 17.3mph 9°C 4°C
17/03/19 15:30 EIDL 171530Z 33016KT 9999 FEW037 10/04 Q1010 NNW (330°) 18.4mph 10°C 4°C
17/03/19 15:00 EIDL 171500Z 34015KT CAVOK 09/04 Q1010 NNW (340°) 17.3mph 9°C 4°C
17/03/19 14:30 EIDL 171430Z 34019KT CAVOK 09/03 Q1010 NNW (340°) 21.9mph 9°C 3°C
17/03/19 14:00 EIDL 171400Z 34019KT 9999 FEW034 10/04 Q1009 NNW (340°) 21.9mph 10°C 4°C
17/03/19 13:30 EIDL 171330Z 34019KT 9999 FEW030 10/04 Q1008 NNW (340°) 21.9mph 10°C 4°C
17/03/19 13:00 EIDL 171300Z 34019KT 9999 FEW026 09/04 Q1008 NNW (340°) 21.9mph 9°C 4°C
17/03/19 12:30 EIDL 171230Z 34021KT 9999 FEW041 09/04 Q1006 NNW (340°) 24.2mph 9°C 4°C
17/03/19 12:00 EIDL 171200Z 33021KT 9999 BKN028 09/05 Q1006 NNW (330°) 24.2mph 9°C 5°C
17/03/19 11:30 EIDL 171130Z 33023KT 9999 FEW032 09/04 Q1005 NNW (330°) 26.5mph 9°C 4°C
17/03/19 11:00 EIDL 171100Z 34023G34KT 9999 SCT031 08/03 Q1004 NNW (340°) 26.5mph 39.1mph 8°C 3°C
17/03/19 10:30 EIDL 171030Z 34023G37KT 9999 -RA BKN030 08/04 Q1003 -RA NNW (340°) 26.5mph 42.6mph 8°C 4°C